createdAt,value
2023-04-30T00:00:16.761Z,1519
2023-04-30T00:05:34.961Z,1556
2023-04-30T00:10:53.116Z,1596
2023-04-30T00:16:11.616Z,1621
2023-04-30T00:21:29.987Z,1632
2023-04-30T00:26:48.313Z,1633
2023-04-30T00:32:06.765Z,1650
2023-04-30T00:37:25.274Z,1664
2023-04-30T00:42:43.814Z,1678
2023-04-30T00:48:02.268Z,1682
2023-04-30T00:53:20.586Z,1681
2023-04-30T00:58:39.134Z,1681
2023-04-30T01:03:57.522Z,1687
2023-04-30T01:09:15.665Z,1701
2023-04-30T01:14:34.210Z,1717
2023-04-30T01:19:52.775Z,1718
2023-04-30T01:25:11.765Z,1703
2023-04-30T01:30:14.312Z,1698
2023-04-30T01:35:32.762Z,1691
2023-04-30T01:40:50.930Z,1693
2023-04-30T01:46:09.556Z,1700
2023-04-30T01:51:28.168Z,1715
2023-04-30T01:56:46.162Z,1714
2023-04-30T02:02:04.324Z,1703
2023-04-30T02:07:22.324Z,1698
2023-04-30T02:12:40.668Z,1699
2023-04-30T02:17:58.854Z,1694
2023-04-30T02:23:17.165Z,1690
2023-04-30T02:28:35.863Z,1674
2023-04-30T02:33:54.207Z,1664
2023-04-30T02:39:12.595Z,1650
2023-04-30T02:44:31.001Z,1656
2023-04-30T02:49:49.341Z,1653
2023-04-30T02:55:07.954Z,1641
2023-04-30T03:00:25.949Z,1640
2023-04-30T03:05:44.086Z,1627
2023-04-30T03:11:02.269Z,1622
2023-04-30T03:16:20.651Z,1615
2023-04-30T03:21:39.264Z,1634
2023-04-30T03:26:57.911Z,1641
2023-04-30T03:32:15.818Z,1650
2023-04-30T03:37:34.383Z,1650
2023-04-30T03:42:53.005Z,1657
2023-04-30T03:48:11.390Z,1650
2023-04-30T03:53:29.533Z,1643
2023-04-30T03:58:47.941Z,1626
2023-04-30T04:04:06.274Z,1619
2023-04-30T04:09:24.893Z,1611
2023-04-30T04:14:43.127Z,1611
2023-04-30T04:20:01.494Z,1614
2023-04-30T04:25:19.647Z,1615
2023-04-30T04:30:38.404Z,1624
2023-04-30T04:35:56.517Z,1627
2023-04-30T04:41:14.698Z,1636
2023-04-30T04:46:33.151Z,1645
2023-04-30T04:51:51.322Z,1635
2023-04-30T04:57:09.243Z,1627
2023-04-30T05:02:27.495Z,1622
2023-04-30T05:07:45.904Z,1611
2023-04-30T05:13:04.228Z,1624
2023-04-30T05:18:22.698Z,1632
2023-04-30T05:23:40.817Z,1639
2023-04-30T05:28:58.961Z,1647
2023-04-30T05:34:17.195Z,1667
2023-04-30T05:39:35.541Z,1682
2023-04-30T05:44:54.044Z,1685
2023-04-30T05:50:12.261Z,1684
2023-04-30T05:55:33.439Z,1677
2023-04-30T06:00:51.735Z,1675
2023-04-30T06:06:10.342Z,1675
2023-04-30T06:11:29.842Z,1663
2023-04-30T06:16:48.297Z,1654
2023-04-30T06:22:06.780Z,1651
2023-04-30T06:27:24.737Z,1631
2023-04-30T06:32:43.455Z,1640
2023-04-30T06:38:02.413Z,1619
2023-04-30T06:43:20.981Z,1626
2023-04-30T06:48:39.020Z,1622
2023-04-30T06:53:57.666Z,1604
2023-04-30T06:59:18.359Z,1593
2023-04-30T07:04:36.721Z,1566
2023-04-30T07:09:55.348Z,1177
2023-04-30T07:15:15.200Z,1116
2023-04-30T07:20:33.776Z,993
2023-04-30T07:25:52.355Z,947
2023-04-30T07:31:10.531Z,965
2023-04-30T07:36:28.577Z,1043
2023-04-30T07:41:46.831Z,1087
2023-04-30T07:47:04.890Z,1166
2023-04-30T07:52:22.853Z,1228
2023-04-30T07:57:41.314Z,1286
2023-04-30T08:02:59.526Z,1315
2023-04-30T08:08:17.865Z,1305
2023-04-30T08:13:36.442Z,1281
2023-04-30T08:18:55.100Z,1254
2023-04-30T08:24:13.587Z,1241
2023-04-30T08:29:31.586Z,1230
2023-04-30T08:34:49.960Z,1204
2023-04-30T08:40:08.131Z,1178
2023-04-30T08:45:26.761Z,1167
2023-04-30T08:50:45.150Z,1144
2023-04-30T08:56:03.323Z,1150
2023-04-30T09:01:21.861Z,1154
2023-04-30T09:06:40.445Z,1145
2023-04-30T09:11:58.767Z,1134
2023-04-30T09:17:17.787Z,1117
2023-04-30T09:22:36.368Z,1090
2023-04-30T09:27:54.948Z,1048
2023-04-30T09:33:13.442Z,1004
2023-04-30T09:38:31.750Z,986
2023-04-30T09:43:49.898Z,971
2023-04-30T09:49:08.402Z,933
2023-04-30T09:54:26.690Z,914
2023-04-30T09:59:45.078Z,892
2023-04-30T10:05:03.683Z,868
2023-04-30T10:10:22.039Z,854
2023-04-30T10:15:40.157Z,834
2023-04-30T10:20:58.806Z,821
2023-04-30T10:26:17.242Z,614
2023-04-30T10:31:35.303Z,465
2023-04-30T10:36:54.029Z,403
2023-04-30T10:42:12.138Z,400
2023-04-30T10:47:33.359Z,409
2023-04-30T10:52:51.917Z,414
2023-04-30T10:58:10.059Z,425
2023-04-30T11:03:28.459Z,431
2023-04-30T11:08:46.855Z,440
2023-04-30T11:14:05.157Z,446
2023-04-30T11:19:23.751Z,462
2023-04-30T11:24:42.055Z,500
2023-04-30T11:30:00.494Z,555
2023-04-30T11:35:19.036Z,598
2023-04-30T11:40:37.614Z,616
2023-04-30T11:45:55.957Z,618
2023-04-30T11:51:14.563Z,618
2023-04-30T11:56:33.212Z,622
2023-04-30T12:01:51.318Z,621
2023-04-30T12:07:09.576Z,625
2023-04-30T12:12:27.946Z,635
2023-04-30T12:17:46.557Z,642
2023-04-30T12:23:05.146Z,660
2023-04-30T12:28:24.547Z,669
2023-04-30T12:33:42.689Z,676
2023-04-30T12:39:00.879Z,689
2023-04-30T12:44:19.404Z,697
2023-04-30T12:49:38.000Z,731
2023-04-30T12:54:56.526Z,619
2023-04-30T13:00:15.158Z,590
2023-04-30T13:05:33.283Z,629
2023-04-30T13:10:51.656Z,684
2023-04-30T13:16:09.836Z,737
2023-04-30T13:21:29.486Z,779
2023-04-30T13:26:47.681Z,812
2023-04-30T13:32:07.356Z,854
2023-04-30T13:37:25.894Z,888
2023-04-30T13:42:44.474Z,907
2023-04-30T13:48:03.175Z,939
2023-04-30T13:53:21.817Z,951
2023-04-30T13:58:39.962Z,937
2023-04-30T14:03:59.788Z,924
2023-04-30T14:09:18.306Z,922
2023-04-30T14:14:38.726Z,916
2023-04-30T14:19:58.185Z,922
2023-04-30T14:25:16.511Z,927
2023-04-30T14:30:34.532Z,945
2023-04-30T14:35:52.952Z,958
2023-04-30T14:41:11.337Z,964
2023-04-30T14:46:19.650Z,964
2023-04-30T14:51:37.856Z,1004
2023-04-30T14:56:56.445Z,1045
2023-04-30T15:02:14.661Z,1084
2023-04-30T15:07:33.242Z,1109
2023-04-30T15:12:51.873Z,1123
2023-04-30T15:18:10.248Z,1131
2023-04-30T15:23:13.165Z,1155
2023-04-30T15:28:31.818Z,1235
2023-04-30T15:33:50.435Z,1243
2023-04-30T15:38:53.703Z,1243
2023-04-30T15:44:12.069Z,1267
2023-04-30T15:49:30.236Z,1328
2023-04-30T15:54:48.802Z,1377
2023-04-30T16:00:07.106Z,1331
2023-04-30T16:05:25.904Z,1352
2023-04-30T16:16:17.034Z,1411
2023-04-30T16:21:37.158Z,1420
2023-04-30T16:26:55.925Z,1424
2023-04-30T16:32:14.498Z,1422
2023-04-30T16:37:32.988Z,1425
2023-04-30T16:42:51.385Z,1454
2023-04-30T16:48:09.852Z,1539
2023-04-30T16:53:28.400Z,1632
2023-04-30T16:58:46.845Z,1632
2023-04-30T17:04:05.479Z,1623
2023-04-30T17:09:24.164Z,1612
2023-04-30T17:14:42.563Z,1578
2023-04-30T17:20:00.998Z,1538
2023-04-30T17:25:19.448Z,1507
2023-04-30T17:30:38.241Z,1470
2023-04-30T17:35:56.758Z,1444
2023-04-30T17:41:14.934Z,1429
2023-04-30T17:46:33.288Z,1414
2023-04-30T17:51:51.951Z,1411
2023-04-30T17:57:19.868Z,1404
2023-04-30T18:02:39.044Z,1411
2023-04-30T18:07:58.706Z,1434
2023-04-30T18:13:18.083Z,1448
2023-04-30T18:18:36.264Z,1463
2023-04-30T18:23:54.699Z,1474
2023-04-30T18:29:18.638Z,1495
2023-04-30T18:34:37.026Z,1505
2023-04-30T18:39:58.197Z,1516
2023-04-30T18:45:16.564Z,1495
2023-04-30T18:50:34.846Z,1331
2023-04-30T18:55:53.304Z,1120
2023-04-30T19:01:11.456Z,1166
2023-04-30T19:06:29.945Z,1162
2023-04-30T19:11:48.664Z,1156
2023-04-30T19:17:07.153Z,1150
2023-04-30T19:22:26.346Z,1151
2023-04-30T19:27:44.683Z,1158
2023-04-30T19:33:03.156Z,1157
2023-04-30T19:38:21.531Z,1157
2023-04-30T19:43:40.065Z,1160
2023-04-30T19:48:58.302Z,1173
2023-04-30T19:54:17.399Z,1175
2023-04-30T19:59:35.833Z,1186
2023-04-30T20:04:54.342Z,1193
2023-04-30T20:10:12.716Z,1208
2023-04-30T20:15:31.020Z,1215
2023-04-30T20:20:49.237Z,1223
2023-04-30T20:26:07.803Z,1231
2023-04-30T20:31:27.572Z,1240
2023-04-30T20:36:45.984Z,1240
2023-04-30T20:42:04.807Z,1246
2023-04-30T20:47:23.177Z,1255
2023-04-30T20:52:41.576Z,1263
2023-04-30T20:57:59.536Z,1275
2023-04-30T21:03:18.029Z,1219
2023-04-30T21:08:37.218Z,1225
2023-04-30T21:13:55.236Z,1251
2023-04-30T21:19:13.312Z,1295
2023-04-30T21:24:31.907Z,1340
2023-04-30T21:29:50.287Z,1384
2023-04-30T21:35:08.604Z,1477
2023-04-30T21:40:26.912Z,1515
2023-04-30T21:45:45.149Z,1551
2023-04-30T21:51:03.609Z,1570
2023-04-30T21:56:21.942Z,1589
2023-04-30T22:01:40.209Z,1597
2023-04-30T22:06:59.183Z,1612
2023-04-30T22:12:17.257Z,1633
2023-04-30T22:17:35.234Z,1640
2023-04-30T22:22:53.838Z,1641
2023-04-30T22:28:12.157Z,1647
2023-04-30T22:33:30.743Z,1649
2023-04-30T22:38:48.993Z,1646
2023-04-30T22:44:06.957Z,1647
2023-04-30T22:49:30.985Z,1642
2023-04-30T22:54:50.738Z,1650
2023-04-30T23:00:08.774Z,1657
2023-04-30T23:05:27.362Z,1661
2023-04-30T23:10:45.736Z,1666
2023-04-30T23:16:05.153Z,1678
2023-04-30T23:21:23.734Z,1686
2023-04-30T23:26:42.291Z,1689
2023-04-30T23:31:45.014Z,1695
2023-04-30T23:37:03.425Z,1689
2023-04-30T23:42:21.658Z,1697
2023-04-30T23:47:40.004Z,1710
2023-04-30T23:52:58.393Z,1719
2023-04-30T23:58:16.597Z,1729
